Time;durP1;ratioP1;P1;durP2;ratioP2;P2;SDS_P1;SDS_P2;PMS_P1;PMS_P2;Temp;Humidity;BMP_temperature;BMP_pressure;BME280_temperature;BME280_humidity;BME280_pressure;Samples;Min_cycle;Max_cycle;Signal;HPM_P1;HPM_P2
2023/06/21 00:02:28;;;;;;;9.52;4.93;;;22.80;86.70;;;;;;4859756;29;20059;-78
2023/06/21 00:04:55;;;;;;;6.80;4.45;;;22.80;86.90;;;;;;4862154;29;20610;-78
2023/06/21 00:07:23;;;;;;;8.73;4.35;;;22.80;87.10;;;;;;4847316;29;20500;-78
2023/06/21 00:09:52;;;;;;;7.82;4.70;;;22.70;87.80;;;;;;4840658;29;20044;-78
2023/06/21 00:12:20;;;;;;;5.93;4.78;;;22.70;86.80;;;;;;4848658;29;20469;-78
2023/06/21 00:14:47;;;;;;;6.88;4.72;;;22.70;87.00;;;;;;4847346;29;20518;-78
2023/06/21 00:17:14;;;;;;;9.38;5.40;;;22.70;86.70;;;;;;4880056;29;20053;-77
2023/06/21 00:19:41;;;;;;;5.70;4.32;;;22.60;86.50;;;;;;4882219;29;20072;-78
2023/06/21 00:22:08;;;;;;;7.93;5.03;;;22.60;86.80;;;;;;4861525;29;20044;-78
2023/06/21 00:24:35;;;;;;;7.43;4.53;;;22.60;87.00;;;;;;4851417;29;20060;-78
2023/06/21 00:27:03;;;;;;;7.55;5.35;;;22.70;87.50;;;;;;4863682;29;20139;-78
2023/06/21 00:29:30;;;;;;;6.90;4.28;;;22.60;86.90;;;;;;4849598;29;20843;-78
2023/06/21 00:31:58;;;;;;;6.50;4.13;;;22.60;86.80;;;;;;4873236;29;20052;-78
2023/06/21 00:34:25;;;;;;;8.35;4.78;;;22.60;87.30;;;;;;4850754;29;20985;-78
2023/06/21 00:36:52;;;;;;;6.35;4.75;;;22.50;86.60;;;;;;4859659;29;20040;-78
2023/06/21 00:39:20;;;;;;;5.50;4.70;;;22.50;86.70;;;;;;4840378;29;20052;-78
2023/06/21 00:41:48;;;;;;;8.25;4.80;;;22.50;86.50;;;;;;4848696;29;20507;-78
2023/06/21 00:44:15;;;;;;;9.68;5.22;;;22.40;86.40;;;;;;4865070;29;20447;-78
2023/06/21 00:46:42;;;;;;;7.47;4.88;;;22.40;86.90;;;;;;4862239;29;20208;-78
2023/06/21 00:49:10;;;;;;;7.30;5.43;;;22.40;86.90;;;;;;4863481;29;20056;-77
2023/06/21 00:51:38;;;;;;;7.28;4.90;;;22.30;87.20;;;;;;4853514;29;20063;-78
2023/06/21 00:54:09;;;;;;;7.35;5.00;;;22.30;87.70;;;;;;4846385;29;20353;-77
2023/06/21 00:56:36;;;;;;;7.15;4.80;;;22.30;87.30;;;;;;4861452;29;20154;-77
2023/06/21 00:59:04;;;;;;;6.75;5.22;;;22.30;87.60;;;;;;4863367;29;20079;-78
2023/06/21 01:01:31;;;;;;;8.00;5.38;;;22.30;88.30;;;;;;4865741;29;20139;-78
2023/06/21 01:04:00;;;;;;;6.38;4.70;;;22.20;87.90;;;;;;4868073;29;20067;-78
2023/06/21 01:06:50;;;;;;;6.55;4.10;;;22.20;88.90;;;;;;4852563;29;20235;-78
2023/06/21 01:09:45;;;;;;;7.07;4.90;;;22.20;88.50;;;;;;4875165;29;20087;-78
2023/06/21 01:12:40;;;;;;;7.85;4.30;;;22.20;87.90;;;;;;4846506;29;20181;-78
2023/06/21 01:15:26;;;;;;;5.72;4.70;;;22.20;88.70;;;;;;4860748;29;20535;-78
2023/06/21 01:17:59;;;;;;;8.43;4.78;;;22.20;89.00;;;;;;4858774;29;20048;-77
2023/06/21 01:20:33;;;;;;;6.40;4.70;;;22.20;89.70;;;;;;4851922;29;22840;-77
2023/06/21 01:23:26;;;;;;;4.80;3.83;;;22.10;90.00;;;;;;4835982;29;20753;-78
2023/06/21 01:26:06;;;;;;;7.88;5.05;;;22.20;89.90;;;;;;4868779;29;20088;-78
2023/06/21 01:28:52;;;;;;;7.05;4.18;;;22.10;90.10;;;;;;4845861;29;20143;-78
2023/06/21 01:31:22;;;;;;;9.73;5.47;;;22.10;90.10;;;;;;4865761;29;20043;-78
2023/06/21 01:33:50;;;;;;;6.22;4.05;;;22.10;89.80;;;;;;4838677;29;20104;-78
2023/06/21 01:36:18;;;;;;;7.15;4.53;;;22.00;90.50;;;;;;4875133;29;20423;-78
2023/06/21 01:38:45;;;;;;;6.25;4.55;;;22.00;90.40;;;;;;4854729;29;20060;-78
2023/06/21 01:41:12;;;;;;;6.90;4.40;;;21.90;90.50;;;;;;4847481;29;20546;-78
2023/06/21 01:43:40;;;;;;;6.93;4.95;;;22.00;90.50;;;;;;4852714;29;20052;-78
2023/06/21 01:46:10;;;;;;;7.90;5.47;;;22.00;91.20;;;;;;4847027;29;20522;-78
2023/06/21 01:48:38;;;;;;;8.82;5.28;;;22.00;91.00;;;;;;4840824;29;20056;-78
2023/06/21 01:51:06;;;;;;;6.85;4.55;;;21.90;91.10;;;;;;4850890;29;20496;-78
2023/06/21 01:53:34;;;;;;;8.05;4.88;;;21.90;91.30;;;;;;4856008;29;20052;-77
2023/06/21 01:56:07;;;;;;;8.82;5.10;;;21.90;91.40;;;;;;4861622;29;20072;-78
2023/06/21 01:58:34;;;;;;;;;;;21.90;91.10;;;;;;4838602;29;20052;-78
2023/06/21 02:01:02;;;;;;;6.13;4.80;;;21.80;91.10;;;;;;4853213;29;19931;-78
2023/06/21 02:03:32;;;;;;;9.30;5.72;;;21.80;91.10;;;;;;4837517;29;20063;-77
2023/06/21 02:06:03;;;;;;;7.70;5.45;;;21.80;91.20;;;;;;4846660;29;20064;-77
2023/06/21 02:08:32;;;;;;;7.88;5.35;;;21.80;91.40;;;;;;4851536;29;20484;-77
2023/06/21 02:11:01;;;;;;;7.50;5.22;;;21.70;91.90;;;;;;4856635;29;20075;-77
2023/06/21 02:13:28;;;;;;;7.20;4.90;;;21.70;92.00;;;;;;4855235;29;20063;-77
2023/06/21 02:15:56;;;;;;;6.35;4.93;;;21.70;92.10;;;;;;4846832;29;22316;-78
2023/06/21 02:18:24;;;;;;;7.05;5.07;;;21.70;92.10;;;;;;4865709;29;20523;-78
2023/06/21 02:20:52;;;;;;;7.10;5.03;;;21.60;92.50;;;;;;4857263;29;20045;-78
2023/06/21 02:23:19;;;;;;;12.82;5.10;;;21.60;92.80;;;;;;4839297;29;20052;-78
2023/06/21 02:25:46;;;;;;;7.65;5.40;;;21.60;92.70;;;;;;4839671;29;20088;-78
2023/06/21 02:28:16;;;;;;;6.70;5.20;;;21.60;92.80;;;;;;4839249;29;20060;-77
2023/06/21 02:30:43;;;;;;;8.20;5.38;;;21.60;92.80;;;;;;4850066;29;20440;-77
2023/06/21 02:33:11;;;;;;;6.20;4.97;;;21.60;93.10;;;;;;4847044;29;20087;-77
2023/06/21 02:35:38;;;;;;;6.28;4.88;;;21.50;93.10;;;;;;4863285;29;20831;-77
2023/06/21 02:38:06;;;;;;;7.80;5.32;;;21.50;93.10;;;;;;4862434;29;20131;-77
2023/06/21 02:40:33;;;;;;;8.40;5.38;;;21.50;93.20;;;;;;4864962;29;20291;-77
2023/06/21 02:43:00;;;;;;;7.53;4.82;;;21.50;93.50;;;;;;4840874;29;20048;-77
2023/06/21 02:45:27;;;;;;;8.00;5.10;;;21.40;93.10;;;;;;4849768;29;20101;-77
2023/06/21 02:47:54;;;;;;;7.90;5.47;;;21.40;93.40;;;;;;4831901;29;20313;-77
2023/06/21 02:50:22;;;;;;;6.78;4.95;;;21.40;93.60;;;;;;4863154;29;20044;-77
2023/06/21 02:52:49;;;;;;;7.93;5.10;;;21.40;93.90;;;;;;4847655;29;20135;-77
2023/06/21 02:55:17;;;;;;;8.18;5.50;;;21.40;94.00;;;;;;4862998;29;20048;-77
2023/06/21 02:57:44;;;;;;;8.65;5.97;;;21.40;94.00;;;;;;4846876;29;20061;-77
2023/06/21 03:00:22;;;;;;;7.88;5.35;;;21.40;94.70;;;;;;4849109;29;20143;-77
2023/06/21 03:02:50;;;;;;;7.30;4.90;;;21.40;94.40;;;;;;4845615;29;20441;-78
2023/06/21 03:05:17;;;;;;;7.03;4.53;;;21.40;94.00;;;;;;4844218;29;20063;-78
2023/06/21 03:07:46;;;;;;;7.55;5.50;;;21.40;93.60;;;;;;4864800;29;20052;-78
2023/06/21 03:10:14;;;;;;;6.50;5.00;;;21.40;93.50;;;;;;4864082;29;20057;-78
2023/06/21 03:12:44;;;;;;;8.45;5.72;;;21.40;93.90;;;;;;4836196;29;20070;-77
2023/06/21 03:15:15;;;;;;;7.15;4.82;;;21.40;94.30;;;;;;4842222;29;20074;-77
2023/06/21 03:17:44;;;;;;;9.07;5.82;;;21.40;94.00;;;;;;4849969;29;20061;-78
2023/06/21 03:20:14;;;;;;;8.95;4.78;;;21.40;94.00;;;;;;4856017;29;20183;-78
2023/06/21 03:22:44;;;;;;;8.48;4.60;;;21.40;94.00;;;;;;4867772;29;20086;-78
2023/06/21 03:25:13;;;;;;;10.27;6.30;;;21.40;94.30;;;;;;4842843;29;20813;-78
2023/06/21 03:27:43;;;;;;;8.50;5.10;;;21.40;94.70;;;;;;4861574;29;20052;-77
2023/06/21 03:30:12;;;;;;;7.78;5.53;;;21.50;93.90;;;;;;4839200;29;20052;-77
2023/06/21 03:32:51;;;;;;;8.35;5.50;;;21.50;93.50;;;;;;4862985;29;20416;-77
2023/06/21 03:35:19;;;;;;;9.55;5.97;;;21.50;93.70;;;;;;4863304;29;20438;-78
2023/06/21 03:37:50;;;;;;;10.88;5.28;;;21.50;93.90;;;;;;4855917;29;20107;-78
2023/06/21 03:40:31;;;;;;;8.63;5.82;;;21.50;94.40;;;;;;4854280;29;20140;-77
2023/06/21 03:42:58;;;;;;;8.23;5.32;;;21.50;93.90;;;;;;4846742;29;20051;-77
2023/06/21 03:45:26;;;;;;;11.73;5.72;;;21.60;93.70;;;;;;4855746;29;20059;-77
2023/06/21 03:47:59;;;;;;;9.57;5.75;;;21.60;93.90;;;;;;4855591;29;20083;-77
2023/06/21 03:50:26;;;;;;;12.18;5.78;;;21.60;93.50;;;;;;4844584;29;20199;-77
2023/06/21 03:52:55;;;;;;;12.32;5.78;;;21.70;93.80;;;;;;4865347;29;20051;-77
2023/06/21 03:55:22;;;;;;;8.40;5.38;;;21.70;94.00;;;;;;4870026;29;20040;-77
2023/06/21 03:57:49;;;;;;;9.27;5.07;;;21.70;94.00;;;;;;4855181;29;20055;-77
2023/06/21 04:00:17;;;;;;;10.30;6.45;;;21.70;94.20;;;;;;4834123;29;20820;-77
2023/06/21 04:02:49;;;;;;;10.90;5.88;;;21.70;94.10;;;;;;4861962;29;20052;-77
2023/06/21 04:05:17;;;;;;;9.35;5.72;;;21.70;94.30;;;;;;4853037;29;20053;-77
2023/06/21 04:07:46;;;;;;;9.98;5.80;;;21.70;94.20;;;;;;4836547;29;20052;-77
2023/06/21 04:10:14;;;;;;;11.38;6.68;;;21.80;94.50;;;;;;4851844;29;20060;-77
2023/06/21 04:12:41;;;;;;;9.48;6.47;;;21.80;93.90;;;;;;4838728;29;20056;-77
2023/06/21 04:15:09;;;;;;;9.02;6.18;;;21.90;94.20;;;;;;4862619;29;20087;-77
2023/06/21 04:17:38;;;;;;;9.05;6.60;;;21.90;94.10;;;;;;4837714;29;20460;-78
2023/06/21 04:20:13;;;;;;;9.65;6.20;;;21.90;94.00;;;;;;4869026;29;22387;-77
2023/06/21 04:22:41;;;;;;;8.60;6.30;;;21.90;94.60;;;;;;4864438;29;20056;-77
2023/06/21 04:25:09;;;;;;;8.88;6.55;;;21.90;94.40;;;;;;4847392;29;20052;-77
2023/06/21 04:27:45;;;;;;;8.40;5.93;;;21.90;93.90;;;;;;4864186;29;20143;-78
2023/06/21 04:30:14;;;;;;;10.20;5.55;;;21.90;94.40;;;;;;4845371;29;20792;-78
2023/06/21 04:32:45;;;;;;;10.23;6.13;;;21.90;94.80;;;;;;4860486;29;20052;-78
2023/06/21 04:35:17;;;;;;;9.20;6.25;;;22.00;94.40;;;;;;4859108;29;20052;-77
2023/06/21 04:37:46;;;;;;;8.77;6.35;;;22.10;94.80;;;;;;4831382;29;20052;-77
2023/06/21 04:40:15;;;;;;;7.18;6.00;;;22.10;94.30;;;;;;4851637;29;22382;-78
2023/06/21 04:42:55;;;;;;;10.57;6.45;;;22.20;94.40;;;;;;4849838;29;20052;-78
2023/06/21 04:45:22;;;;;;;10.73;6.25;;;22.30;94.20;;;;;;4864521;29;20498;-78
2023/06/21 04:47:49;;;;;;;9.18;6.57;;;22.40;93.40;;;;;;4864100;29;20052;-78
2023/06/21 04:50:19;;;;;;;9.75;6.50;;;22.40;93.70;;;;;;4849987;29;20052;-78
2023/06/21 04:52:49;;;;;;;10.60;6.50;;;22.40;93.70;;;;;;4849442;29;20087;-78
2023/06/21 04:55:18;;;;;;;9.57;6.75;;;22.60;93.50;;;;;;4864337;29;20079;-78
2023/06/21 04:57:47;;;;;;;11.38;6.82;;;22.60;93.50;;;;;;4855789;29;20120;-78
2023/06/21 05:00:15;;;;;;;10.80;6.50;;;22.80;93.00;;;;;;4844276;29;20516;-78
2023/06/21 05:02:42;;;;;;;8.43;6.13;;;23.00;93.00;;;;;;4848536;29;20512;-78
2023/06/21 05:05:10;;;;;;;9.85;6.60;;;23.10;92.40;;;;;;4864504;29;20051;-79
2023/06/21 05:07:38;;;;;;;9.15;6.88;;;23.20;92.10;;;;;;4866966;29;20206;-79
2023/06/21 05:10:10;;;;;;;10.07;6.40;;;23.20;91.80;;;;;;4862444;29;20056;-79
2023/06/21 05:12:38;;;;;;;;;;;23.10;91.80;;;;;;4861504;29;20094;-80
2023/06/21 05:15:05;;;;;;;7.95;6.32;;;23.00;91.80;;;;;;4851025;29;20123;-80
2023/06/21 05:17:34;;;;;;;8.45;6.60;;;23.00;92.10;;;;;;4845614;29;20048;-79
2023/06/21 05:20:04;;;;;;;8.70;6.60;;;23.00;92.10;;;;;;4863447;29;20117;-78
2023/06/21 05:22:32;;;;;;;9.48;7.22;;;23.30;91.50;;;;;;4868064;29;20044;-78
2023/06/21 05:25:01;;;;;;;8.82;6.50;;;23.40;91.00;;;;;;4857348;29;20052;-80
2023/06/21 05:27:29;;;;;;;7.47;5.63;;;23.60;90.80;;;;;;4867113;29;20444;-78
2023/06/21 05:29:56;;;;;;;10.50;7.68;;;23.80;90.70;;;;;;4871453;29;20096;-79
2023/06/21 05:32:25;;;;;;;8.93;6.80;;;23.90;90.20;;;;;;4850147;29;20063;-78
2023/06/21 05:34:53;;;;;;;6.63;5.75;;;24.00;90.30;;;;;;4885177;29;20063;-79
2023/06/21 05:37:22;;;;;;;8.55;6.45;;;24.20;90.10;;;;;;4867983;29;20107;-79
2023/06/21 05:39:50;;;;;;;8.50;6.72;;;24.20;89.70;;;;;;4848366;29;20048;-79
2023/06/21 05:42:18;;;;;;;12.07;7.07;;;24.30;90.60;;;;;;4860788;29;20068;-79
2023/06/21 05:44:45;;;;;;;9.90;7.35;;;24.50;90.60;;;;;;4861210;29;20075;-81
2023/06/21 05:47:12;;;;;;;10.10;6.65;;;24.60;90.10;;;;;;4883098;29;20087;-80
2023/06/21 05:49:39;;;;;;;9.45;6.28;;;24.70;90.00;;;;;;4867746;29;20052;-80
2023/06/21 05:52:06;;;;;;;11.27;7.78;;;24.90;89.40;;;;;;4884140;29;20055;-80
2023/06/21 05:54:33;;;;;;;10.77;7.90;;;25.00;89.70;;;;;;4857821;29;20056;-81
2023/06/21 05:57:04;;;;;;;8.90;6.95;;;25.10;89.70;;;;;;4861717;29;20152;-80
2023/06/21 05:59:31;;;;;;;10.63;7.40;;;25.20;90.10;;;;;;4871245;29;20049;-80
2023/06/21 06:01:58;;;;;;;11.63;7.72;;;25.40;90.50;;;;;;4869704;29;20089;-80
2023/06/21 06:04:25;;;;;;;8.27;6.60;;;25.50;89.00;;;;;;4859808;29;20056;-80
2023/06/21 06:06:53;;;;;;;10.57;7.85;;;25.60;88.40;;;;;;4879811;29;20506;-80
2023/06/21 06:09:20;;;;;;;12.65;8.43;;;25.50;87.70;;;;;;4869845;29;20048;-80
2023/06/21 06:11:47;;;;;;;10.95;7.55;;;25.50;87.90;;;;;;4855489;29;22400;-81
2023/06/21 06:14:14;;;;;;;9.30;7.25;;;25.50;88.00;;;;;;4856325;29;20138;-80
2023/06/21 06:16:41;;;;;;;8.68;6.95;;;25.70;88.00;;;;;;4858986;29;20059;-80
2023/06/21 06:19:08;;;;;;;11.68;8.15;;;26.00;88.20;;;;;;4871997;29;20606;-78
2023/06/21 06:21:36;;;;;;;10.90;7.80;;;26.10;87.80;;;;;;4866518;29;20404;-78
2023/06/21 06:24:04;;;;;;;7.13;6.22;;;26.20;87.30;;;;;;4857017;29;20057;-80
2023/06/21 06:26:31;;;;;;;8.05;6.90;;;26.30;87.80;;;;;;4855763;29;20043;-81
2023/06/21 06:28:58;;;;;;;9.13;7.55;;;26.30;87.10;;;;;;4875515;29;20349;-80
2023/06/21 06:31:28;;;;;;;13.50;7.95;;;26.40;88.20;;;;;;4871267;29;20138;-81
2023/06/21 06:33:56;;;;;;;12.55;7.72;;;26.60;88.20;;;;;;4862955;29;20600;-82
2023/06/21 06:36:23;;;;;;;9.73;7.65;;;26.70;88.90;;;;;;4878365;29;20056;-82
2023/06/21 06:38:51;;;;;;;10.27;8.05;;;26.70;87.00;;;;;;4873132;29;20048;-80
2023/06/21 06:41:19;;;;;;;9.38;7.70;;;26.80;86.80;;;;;;4855386;29;20050;-80
2023/06/21 06:43:46;;;;;;;9.30;7.80;;;26.90;86.80;;;;;;4860655;29;20063;-80
2023/06/21 06:46:14;;;;;;;12.35;8.18;;;27.00;86.30;;;;;;4886883;29;20112;-81
2023/06/21 06:48:41;;;;;;;9.35;8.05;;;27.10;86.20;;;;;;4861413;29;20059;-81
2023/06/21 06:51:08;;;;;;;9.73;7.93;;;27.10;85.20;;;;;;4861205;29;20147;-80
2023/06/21 06:53:35;;;;;;;10.77;8.07;;;27.30;86.30;;;;;;4867657;29;22575;-80
2023/06/21 06:56:03;;;;;;;9.75;7.45;;;27.50;85.90;;;;;;4869519;29;20056;-82
2023/06/21 06:58:30;;;;;;;10.98;8.73;;;27.50;85.50;;;;;;4867354;29;20048;-80
2023/06/21 07:00:57;;;;;;;10.75;7.38;;;27.50;86.20;;;;;;4878276;29;20056;-80
2023/06/21 07:03:24;;;;;;;11.32;7.90;;;27.70;84.40;;;;;;4867075;29;20056;-79
2023/06/21 07:05:52;;;;;;;9.65;7.32;;;27.80;83.30;;;;;;4860806;29;20064;-81
2023/06/21 07:08:19;;;;;;;9.32;7.28;;;27.90;82.10;;;;;;4868374;29;20048;-80
2023/06/21 07:10:46;;;;;;;17.55;8.13;;;28.00;83.70;;;;;;4871668;29;20531;-81
2023/06/21 07:13:14;;;;;;;12.60;7.57;;;28.00;83.40;;;;;;4869398;29;20713;-81
2023/06/21 07:15:41;;;;;;;10.00;7.68;;;28.00;83.40;;;;;;4859745;29;20109;-80
2023/06/21 07:18:08;;;;;;;11.43;7.28;;;28.10;83.20;;;;;;4853007;29;20082;-80
2023/06/21 07:20:35;;;;;;;11.57;7.30;;;28.20;82.10;;;;;;4862391;29;20147;-77
2023/06/21 07:23:03;;;;;;;11.52;7.55;;;28.40;82.90;;;;;;4845004;29;20048;-77
2023/06/21 07:25:30;;;;;;;11.38;7.20;;;28.40;82.10;;;;;;4847609;29;20063;-77
2023/06/21 07:27:57;;;;;;;12.13;7.75;;;28.50;80.30;;;;;;4864548;29;20132;-78
2023/06/21 07:30:25;;;;;;;9.30;7.15;;;28.60;79.70;;;;;;4852835;29;20511;-77
2023/06/21 07:32:52;;;;;;;10.07;7.38;;;28.50;80.60;;;;;;4869023;29;20048;-77
2023/06/21 07:35:19;;;;;;;7.85;6.97;;;28.60;82.70;;;;;;4859603;29;20135;-77
2023/06/21 07:37:47;;;;;;;9.25;7.40;;;28.80;81.00;;;;;;4902384;29;20064;-77
2023/06/21 07:40:14;;;;;;;9.32;7.13;;;29.00;80.30;;;;;;4866928;29;20868;-81
2023/06/21 07:42:42;;;;;;;10.25;7.90;;;29.00;79.70;;;;;;4882461;29;20137;-78
2023/06/21 07:45:09;;;;;;;7.95;7.05;;;29.00;79.70;;;;;;4863564;29;20213;-78
2023/06/21 07:47:36;;;;;;;6.97;6.22;;;29.20;81.20;;;;;;4868897;29;20059;-78
2023/06/21 07:50:05;;;;;;;8.57;6.68;;;29.20;78.00;;;;;;4844415;29;20052;-81
2023/06/21 07:52:35;;;;;;;10.05;7.25;;;29.20;78.60;;;;;;4862149;29;20120;-80
2023/06/21 07:55:05;;;;;;;7.80;6.63;;;29.30;81.30;;;;;;4867755;29;20080;-80
2023/06/21 07:57:32;;;;;;;11.70;7.05;;;29.40;80.00;;;;;;4857766;29;20044;-81
2023/06/21 08:00:08;;;;;;;7.68;6.03;;;29.40;78.40;;;;;;4876374;29;20127;-81
2023/06/21 08:02:39;;;;;;;8.88;6.20;;;29.40;78.00;;;;;;4855654;29;20052;-82
2023/06/21 08:05:07;;;;;;;6.97;6.28;;;29.40;76.40;;;;;;4847934;29;20634;-81
2023/06/21 08:07:34;;;;;;;10.63;7.57;;;29.50;77.70;;;;;;4868573;29;20059;-82
2023/06/21 08:10:02;;;;;;;10.15;6.50;;;29.60;76.40;;;;;;4874444;29;20059;-80
2023/06/21 08:12:29;;;;;;;8.60;7.07;;;29.70;78.10;;;;;;4855817;29;20071;-82
2023/06/21 08:14:56;;;;;;;10.18;6.35;;;29.50;76.60;;;;;;4851038;29;20049;-80
2023/06/21 08:17:23;;;;;;;6.88;5.80;;;29.70;77.40;;;;;;4857744;29;20048;-81
2023/06/21 08:19:51;;;;;;;8.73;6.50;;;29.80;77.10;;;;;;4849999;29;20080;-80
2023/06/21 08:22:18;;;;;;;7.82;6.45;;;29.60;76.90;;;;;;4856081;29;20785;-79
2023/06/21 08:24:47;;;;;;;7.07;5.93;;;29.40;77.30;;;;;;4848907;29;20274;-79
2023/06/21 08:27:14;;;;;;;11.00;6.57;;;29.30;77.30;;;;;;4848928;29;20084;-79
2023/06/21 08:29:41;;;;;;;8.93;6.78;;;29.40;77.80;;;;;;4846060;29;20658;-79
2023/06/21 08:32:09;;;;;;;8.07;6.78;;;29.40;79.00;;;;;;4851601;29;20052;-78
2023/06/21 08:34:36;;;;;;;7.40;6.65;;;29.40;79.10;;;;;;4849761;29;20188;-80
2023/06/21 08:37:04;;;;;;;8.35;5.85;;;29.70;80.60;;;;;;4860405;29;20053;-80
2023/06/21 08:39:31;;;;;;;9.82;7.03;;;30.00;77.30;;;;;;4866011;29;20059;-81
2023/06/21 08:41:59;;;;;;;8.25;7.28;;;30.00;77.20;;;;;;4862257;29;20067;-82
2023/06/21 08:44:26;;;;;;;9.80;7.15;;;30.10;75.90;;;;;;4855635;29;20052;-80
2023/06/21 08:46:55;;;;;;;8.90;6.50;;;30.30;77.20;;;;;;4871375;29;20044;-80
2023/06/21 08:49:28;;;;;;;7.18;6.50;;;30.30;75.50;;;;;;4850412;29;20056;-82
2023/06/21 08:51:56;;;;;;;7.78;6.70;;;30.40;75.60;;;;;;4860545;29;20397;-81
2023/06/21 08:54:27;;;;;;;9.07;6.78;;;30.50;74.90;;;;;;4856561;29;20416;-80
2023/06/21 08:57:09;;;;;;;8.00;7.00;;;30.50;74.80;;;;;;4845585;29;20433;-80
2023/06/21 09:00:03;;;;;;;8.65;7.07;;;30.50;74.20;;;;;;4860590;29;20068;-82
2023/06/21 09:02:36;;;;;;;7.57;6.65;;;30.50;75.10;;;;;;4876575;29;20047;-81
2023/06/21 09:05:08;;;;;;;9.82;6.88;;;30.50;75.70;;;;;;4866514;29;20659;-81
2023/06/21 09:07:37;;;;;;;8.75;7.25;;;30.10;75.80;;;;;;4869133;29;20053;-81
2023/06/21 09:10:07;;;;;;;8.23;7.32;;;29.80;76.50;;;;;;4867973;29;20049;-81
2023/06/21 09:12:35;;;;;;;9.63;7.32;;;29.70;77.30;;;;;;4859766;29;20235;-81
2023/06/21 09:15:03;;;;;;;7.93;6.90;;;29.60;77.80;;;;;;4872885;29;20072;-82
2023/06/21 09:17:30;;;;;;;7.90;7.10;;;29.70;77.60;;;;;;4869757;29;20047;-82
2023/06/21 09:19:57;;;;;;;7.47;6.75;;;30.00;78.40;;;;;;4869937;29;20048;-82
2023/06/21 09:22:26;;;;;;;8.63;7.20;;;30.20;77.50;;;;;;4853545;29;20868;-81
2023/06/21 09:24:54;;;;;;;8.38;6.57;;;30.60;76.40;;;;;;4845707;29;20057;-81
2023/06/21 09:27:21;;;;;;;7.70;6.95;;;30.50;76.50;;;;;;4871652;29;21039;-81
2023/06/21 09:29:49;;;;;;;9.43;6.45;;;30.40;77.30;;;;;;4866369;29;20052;-81
2023/06/21 09:32:16;;;;;;;7.75;6.78;;;30.30;74.70;;;;;;4854932;29;20761;-81
2023/06/21 09:34:44;;;;;;;9.27;7.47;;;30.30;75.30;;;;;;4873160;29;22242;-81
2023/06/21 09:37:30;;;;;;;8.05;7.25;;;30.30;75.90;;;;;;4872736;29;20066;-82
2023/06/21 09:39:57;;;;;;;8.13;7.07;;;30.40;77.40;;;;;;4861455;29;20408;-82
2023/06/21 09:42:26;;;;;;;7.60;6.47;;;30.30;76.70;;;;;;4874000;29;20049;-81
2023/06/21 09:44:53;;;;;;;7.90;6.68;;;30.30;76.50;;;;;;4866528;29;20839;-81
2023/06/21 09:47:22;;;;;;;7.57;6.82;;;30.20;77.20;;;;;;4842354;29;20948;-81
2023/06/21 09:49:49;;;;;;;9.00;7.47;;;30.20;76.40;;;;;;4877838;29;20057;-81
2023/06/21 09:52:21;;;;;;;9.18;6.93;;;30.20;76.40;;;;;;4875453;29;20408;-81
2023/06/21 09:54:50;;;;;;;8.07;7.00;;;30.10;78.30;;;;;;4873767;29;22547;-82
2023/06/21 09:57:17;;;;;;;9.68;7.20;;;30.10;77.70;;;;;;4888555;29;20106;-82
2023/06/21 09:59:49;;;;;;;12.93;7.75;;;30.10;78.20;;;;;;4870449;29;20140;-82
2023/06/21 10:02:16;;;;;;;8.82;7.07;;;30.10;77.70;;;;;;4869044;29;20052;-81
2023/06/21 10:04:44;;;;;;;8.05;6.63;;;30.10;77.10;;;;;;4847342;29;22675;-82
2023/06/21 10:07:14;;;;;;;8.82;6.05;;;30.10;80.30;;;;;;4855117;29;20052;-81
2023/06/21 10:09:42;;;;;;;7.10;6.40;;;30.00;78.60;;;;;;4858629;29;20527;-81
2023/06/21 10:12:13;;;;;;;8.85;6.50;;;30.00;79.40;;;;;;4866975;29;20482;-81
2023/06/21 10:14:41;;;;;;;7.82;6.90;;;30.00;78.60;;;;;;4869295;29;20135;-82
2023/06/21 10:17:08;;;;;;;10.25;7.10;;;30.10;79.80;;;;;;4861089;29;20635;-82
2023/06/21 10:19:36;;;;;;;10.68;7.40;;;30.10;79.50;;;;;;4844738;29;20789;-82
2023/06/21 10:22:11;;;;;;;10.05;8.05;;;30.00;78.50;;;;;;4864281;29;20059;-82
2023/06/21 10:24:50;;;;;;;10.27;7.70;;;30.00;80.10;;;;;;4854389;29;20044;-82
2023/06/21 10:27:20;;;;;;;10.68;8.02;;;30.00;79.80;;;;;;4882097;29;20143;-81
2023/06/21 10:29:57;;;;;;;9.20;7.57;;;30.10;79.50;;;;;;4859546;29;20816;-82
2023/06/21 10:32:25;;;;;;;10.40;7.70;;;30.20;80.50;;;;;;4876671;29;20108;-82
2023/06/21 10:35:13;;;;;;;10.43;7.50;;;30.50;81.80;;;;;;4867989;29;20067;-81
2023/06/21 10:37:55;;;;;;;9.35;7.75;;;30.70;79.10;;;;;;4885112;29;20055;-81
2023/06/21 10:40:24;;;;;;;9.63;7.30;;;30.70;80.30;;;;;;4862286;29;20060;-81
2023/06/21 10:42:55;;;;;;;8.98;7.55;;;30.70;79.60;;;;;;4867762;29;20063;-80
2023/06/21 10:45:23;;;;;;;8.68;7.47;;;30.60;79.90;;;;;;4869002;29;20052;-81
2023/06/21 10:47:54;;;;;;;9.55;7.30;;;30.50;79.90;;;;;;4858802;29;20120;-81
2023/06/21 10:50:22;;;;;;;12.63;7.85;;;30.40;80.00;;;;;;4857986;29;20689;-81
2023/06/21 10:52:54;;;;;;;8.95;8.05;;;30.40;79.90;;;;;;4846486;29;20672;-80
2023/06/21 10:55:22;;;;;;;10.10;8.13;;;30.30;81.10;;;;;;4845057;29;20207;-81
2023/06/21 10:57:53;;;;;;;9.95;7.25;;;30.30;79.40;;;;;;4850238;29;20068;-81
2023/06/21 11:00:30;;;;;;;11.38;8.40;;;30.30;79.20;;;;;;4850518;29;20669;-82
2023/06/21 11:02:58;;;;;;;9.88;8.32;;;30.40;81.40;;;;;;4853506;29;20139;-81
2023/06/21 11:05:26;;;;;;;10.32;7.63;;;30.30;78.90;;;;;;4855335;29;20880;-81
2023/06/21 11:07:53;;;;;;;9.43;8.07;;;30.40;79.50;;;;;;4864915;29;20203;-82
2023/06/21 11:10:31;;;;;;;11.20;7.85;;;30.20;79.60;;;;;;4871954;29;20061;-82
2023/06/21 11:12:58;;;;;;;10.50;7.88;;;30.20;80.10;;;;;;4854300;29;20060;-81
2023/06/21 11:15:27;;;;;;;9.13;7.43;;;30.10;79.90;;;;;;4853873;29;20048;-81
2023/06/21 11:17:56;;;;;;;12.43;7.80;;;30.00;79.80;;;;;;4850061;29;20048;-82
2023/06/21 11:20:25;;;;;;;10.82;7.60;;;30.00;79.70;;;;;;4861733;29;20059;-81
2023/06/21 11:23:08;;;;;;;11.00;7.53;;;29.90;80.70;;;;;;4866950;29;20053;-81
2023/06/21 11:25:36;;;;;;;10.10;8.75;;;29.80;79.70;;;;;;4857879;29;20048;-82
2023/06/21 11:28:19;;;;;;;13.52;8.27;;;29.70;81.00;;;;;;4854557;29;20066;-81
2023/06/21 11:31:01;;;;;;;13.02;10.20;;;29.70;82.20;;;;;;4864985;29;20055;-81
2023/06/21 11:33:48;;;;;;;10.88;9.07;;;29.60;80.50;;;;;;4841692;29;20055;-82
2023/06/21 11:36:21;;;;;;;11.88;9.20;;;29.60;81.50;;;;;;4858672;29;20308;-82
2023/06/21 11:38:51;;;;;;;11.25;8.63;;;29.60;81.70;;;;;;4841823;29;20805;-82
2023/06/21 11:41:43;;;;;;;11.00;9.30;;;29.60;82.60;;;;;;4854708;29;20147;-82
2023/06/21 11:44:19;;;;;;;11.23;8.13;;;29.70;83.70;;;;;;4863657;29;20045;-81
2023/06/21 11:46:49;;;;;;;11.02;8.43;;;29.80;83.20;;;;;;4864520;29;22399;-81
2023/06/21 11:49:17;;;;;;;12.15;8.85;;;29.80;83.10;;;;;;4860564;29;20063;-82
2023/06/21 11:52:00;;;;;;;10.63;8.55;;;30.10;82.20;;;;;;4833741;29;20052;-81
2023/06/21 11:54:37;;;;;;;10.95;9.07;;;30.30;79.40;;;;;;4863050;29;20055;-82
2023/06/21 11:57:08;;;;;;;9.45;8.55;;;30.50;82.40;;;;;;4865123;29;20052;-81
2023/06/21 11:59:36;;;;;;;;;;;30.80;82.50;;;;;;4866617;29;20053;-81
2023/06/21 12:02:22;;;;;;;15.80;9.13;;;31.00;78.80;;;;;;4841848;29;19938;-81
2023/06/21 12:04:50;;;;;;;11.25;8.68;;;30.80;78.40;;;;;;4859689;29;20892;-82
2023/06/21 12:07:18;;;;;;;10.23;8.90;;;30.50;77.10;;;;;;4856410;29;20052;-82
2023/06/21 12:09:50;;;;;;;12.07;9.38;;;30.60;80.30;;;;;;4860462;29;20667;-81
2023/06/21 12:12:25;;;;;;;13.50;10.00;;;30.90;80.00;;;;;;4866340;29;20110;-81
2023/06/21 12:14:56;;;;;;;12.05;10.05;;;31.10;79.90;;;;;;4849148;29;20052;-82
2023/06/21 12:17:24;;;;;;;12.40;10.00;;;31.00;76.20;;;;;;4844334;29;20533;-82
2023/06/21 12:19:51;;;;;;;13.85;10.10;;;31.00;76.90;;;;;;4861695;29;20116;-82
2023/06/21 12:22:22;;;;;;;12.52;9.50;;;30.90;78.80;;;;;;4870584;29;20255;-82
2023/06/21 12:24:52;;;;;;;9.52;8.60;;;31.00;80.00;;;;;;4865864;29;20513;-82
2023/06/21 12:27:19;;;;;;;11.18;8.82;;;31.00;78.70;;;;;;4860786;29;20618;-83
2023/06/21 12:29:50;;;;;;;11.65;9.10;;;31.10;78.40;;;;;;4855108;29;21053;-81
2023/06/21 12:32:19;;;;;;;10.52;8.95;;;31.00;75.20;;;;;;4869276;29;20075;-83
2023/06/21 12:34:48;;;;;;;13.95;8.73;;;30.90;77.40;;;;;;4878465;29;20091;-80
2023/06/21 12:37:22;;;;;;;10.90;7.88;;;30.90;76.80;;;;;;4852767;29;20397;-81
2023/06/21 12:39:52;;;;;;;11.25;8.27;;;31.00;76.40;;;;;;4867198;29;20539;-82
2023/06/21 12:42:20;;;;;;;8.85;7.45;;;31.10;76.50;;;;;;4860985;29;20040;-82
2023/06/21 12:44:48;;;;;;;10.77;8.38;;;31.30;77.00;;;;;;4839918;29;21197;-82
2023/06/21 12:47:16;;;;;;;13.85;9.00;;;31.30;75.90;;;;;;4868438;29;21293;-82
2023/06/21 12:49:59;;;;;;;9.40;7.40;;;31.20;74.00;;;;;;4874869;29;20123;-84
2023/06/21 12:52:28;;;;;;;10.63;7.93;;;31.10;73.30;;;;;;4860444;29;20052;-82
2023/06/21 12:54:56;;;;;;;8.85;7.80;;;31.20;75.00;;;;;;4869105;29;20049;-82
2023/06/21 12:57:36;;;;;;;9.38;8.05;;;31.20;74.50;;;;;;4854717;29;20055;-82